Providence, Rhode Island
Traffic Map
Current Weather Conditions
Providence, Rhode Island
Few Clouds
Few Clouds
21°
Feels Like: 21°
Wind Chill: 21° Ceiling: Unl
Heat Index: 21° Visibility: 10mi
Dew Point: Wind: 12mph
Humidity: 42% Direction: 340° (NNW)
Pressure: 29.98in Gusts: 17mph
Raw Report DataKPVD 181451Z 34010G15KT 10SM FEW250 21/08 A2998 RMK AO2 SLP152 T02110078 58004
Traffic Incident Summary
Active as of:
Severity:
Category:
InformationThere was an issue retrieving the traffic information for this location. Please try a different location or try again shortly.
Advertisements
Track Severe Weather on mobile